Aviation Digital Data Service (ADDS)

Output produced by METARs form (0019 UTC 17 July 2019)
found at http://www.aviationweather.gov/metar/data/
 
KBWI 162354Z VRB04KT 10SM BKN140 BKN200 30/23 A3001 RMK AO2 SLP161 CB DSNT E-SE MOV E T03000228 10350 20300 53002
KBWI 162320Z 1700/1806 VRB03KT P6SM SCT050 BKN130 
     FM171600 22008KT P6SM BKN050 
     FM172200 20006KT 6SM -SHRA VCTS BKN050CB BKN130 
     FM180400 23005KT P6SM SCT050 BKN130
       
KMTN 162345Z 16003KT 10SM SCT055 SCT140 BKN200 31/25 A3002
KMTN 162320Z 1700/1724 VRB03KT P6SM SCT050 BKN130 
     FM171600 15008KT P6SM BKN050 
     FM172200 15008KT 6SM -SHRA VCTS BKN050CB BKN130 AMD NOT SKED 1702/1712
       
KCGE 170005Z AUTO VRB06G16KT 160V220 10SM FEW023 29/24 A3002 RMK A01
KADW 162356Z AUTO 15006KT 10SM OVC140 29/23 A3002 RMK AO2 LTG DSNT SE SLP170 T02880234 10337 20288 55001 $
TAF AMD KADW 162345Z 1623/1723 18009KT 9000 -SHRA OVC040 QNH2996INS 
     BECMG 1701/1702 18006KT 9999 NSW OVC130 QNH2986INS 
     TEMPO 1718/1721 21025G35KT 6000 -TSRA BKN060CB TX30/1623Z TN27/1709Z
       
KCBE 162355Z AUTO 00000KT 10SM SCT120 28/23 A3008 RMK AO2 T02820230 10333 20268 403330183 60001
KFME 170003Z AUTO 15003KT 10SM CLR 28/23 A3004 RMK AO1
KFDK 162347Z 00000KT 10SM SCT120 31/24 A3005
KGAI 162356Z AUTO 15003KT 10SM SCT060 31/24 A3005 RMK AO2 SLP183 6//// T03060239 10350 20306 55000 PNO $
KHGR 162353Z 00000KT 10SM SCT120 29/26 A3003 RMK AO2 SLP171 60001 T02940256 10322 20278 56004
K2W6 170003Z AUTO 21004KT 10SM CLR 27/20 A3004 RMK AO1
K2G4 170015Z AUTO 21003KT 10SM CLR 22/18 A3017 RMK AO1
KOXB 162353Z AUTO 22011KT 10SM CLR 29/26 A3005 RMK AO2 LTG DSNT SW AND W SLP175 T02890256 10306 20289 55002
KSBY 162354Z 18007KT 10SM VCTS CLR 29/25 A3004 RMK AO2 LTG DSNT S AND SW SLP172 T02940250 10350 20294 53002
KSBY 162342Z 1700/1724 16009KT P6SM VCTS SCT040CB SCT150 
     TEMPO 1700/1701 24015G25KT 
     FM170100 18003KT P6SM SCT150 
     FM171400 22008KT P6SM SCT250 
     FM171800 20010G18KT P6SM SCT250
       
KW29 170000Z AUTO 19005KT 10SM CLR 31/24 A3001 RMK AO2 LTG DSNT S
KDMW 170000Z AUTO 00000KT 10SM CLR 30/23 A3005 RMK AO2 LTG DSNT S